createdAt,value
2018-08-10T00:00:12.471Z,17.10
2018-08-10T00:01:17.971Z,17.10
2018-08-10T00:02:23.477Z,17.10
2018-08-10T00:03:29.000Z,17.10
2018-08-10T00:04:34.584Z,17.10
2018-08-10T00:05:41.321Z,17.00
2018-08-10T00:06:46.834Z,17.10
2018-08-10T00:07:52.320Z,17.10
2018-08-10T00:08:57.796Z,17.10
2018-08-10T00:10:03.504Z,17.10
2018-08-10T00:11:09.393Z,17.10
2018-08-10T00:12:14.872Z,17.10
2018-08-10T00:13:20.428Z,17.10
2018-08-10T00:14:26.018Z,17.10
2018-08-10T00:15:31.673Z,17.10
2018-08-10T00:16:37.274Z,17.00
2018-08-10T00:17:42.846Z,17.00
2018-08-10T00:18:48.409Z,17.00
2018-08-10T00:19:53.864Z,17.00
2018-08-10T00:20:59.450Z,17.00
2018-08-10T00:22:05.080Z,17.00
2018-08-10T00:23:10.881Z,16.90
2018-08-10T00:24:16.408Z,16.90
2018-08-10T00:25:22.066Z,16.70
2018-08-10T00:26:27.605Z,16.60
2018-08-10T00:27:33.114Z,16.50
2018-08-10T00:28:38.652Z,16.50
2018-08-10T00:29:44.133Z,16.40
2018-08-10T00:30:49.644Z,16.30
2018-08-10T00:31:55.184Z,16.30
2018-08-10T00:33:00.813Z,16.20
2018-08-10T00:34:06.344Z,16.20
2018-08-10T00:35:11.857Z,16.10
2018-08-10T00:36:17.344Z,16.10
2018-08-10T00:37:22.869Z,16.10
2018-08-10T00:38:28.326Z,16.10
2018-08-10T00:39:34.086Z,16.10
2018-08-10T00:40:39.522Z,16.00
2018-08-10T00:41:45.588Z,16.00
2018-08-10T00:42:51.608Z,16.00
2018-08-10T00:43:57.168Z,16.00
2018-08-10T00:45:02.685Z,16.00
2018-08-10T00:46:08.237Z,16.00
2018-08-10T00:47:13.761Z,15.90
2018-08-10T00:48:19.377Z,15.90
2018-08-10T00:49:25.352Z,16.00
2018-08-10T00:50:30.847Z,15.90
2018-08-10T00:51:37.162Z,15.90
2018-08-10T00:52:43.176Z,15.90
2018-08-10T00:53:48.704Z,15.90
2018-08-10T00:54:54.240Z,15.90
2018-08-10T00:56:00.110Z,15.90
2018-08-10T00:57:05.768Z,15.90
2018-08-10T00:58:11.309Z,15.90
2018-08-10T00:59:16.764Z,15.90
2018-08-10T01:00:24.089Z,15.90
2018-08-10T01:01:29.982Z,15.90
2018-08-10T01:02:36.159Z,15.90
2018-08-10T01:03:41.620Z,15.90
2018-08-10T01:04:47.091Z,15.90
2018-08-10T01:05:52.622Z,15.90
2018-08-10T01:06:58.558Z,15.90
2018-08-10T01:08:04.199Z,15.90
2018-08-10T01:09:12.448Z,15.90
2018-08-10T01:10:19.529Z,15.90
2018-08-10T01:11:24.978Z,15.90
2018-08-10T01:12:30.618Z,15.90
2018-08-10T01:13:36.185Z,15.90
2018-08-10T01:14:41.540Z,16.00
2018-08-10T01:15:47.053Z,16.00
2018-08-10T01:16:52.598Z,16.00
2018-08-10T01:17:58.128Z,16.00
2018-08-10T01:19:04.102Z,15.90
2018-08-10T01:20:23.336Z,15.90
2018-08-10T01:21:28.921Z,15.90
2018-08-10T01:22:38.637Z,16.00
2018-08-10T01:23:44.153Z,15.90
2018-08-10T01:24:49.656Z,16.00
2018-08-10T01:25:55.129Z,16.00
2018-08-10T01:27:00.685Z,16.00
2018-08-10T01:28:06.409Z,16.00
2018-08-10T01:29:11.908Z,16.00
2018-08-10T01:30:17.469Z,15.90
2018-08-10T01:31:23.330Z,15.90
2018-08-10T01:32:28.812Z,15.90
2018-08-10T01:33:34.543Z,15.90
2018-08-10T01:34:40.044Z,15.90
2018-08-10T01:35:45.488Z,15.90
2018-08-10T01:36:50.896Z,15.90
2018-08-10T01:37:57.477Z,15.90
2018-08-10T01:39:03.228Z,15.90
2018-08-10T01:40:09.647Z,15.80
2018-08-10T01:41:15.141Z,15.80
2018-08-10T01:42:20.622Z,15.80
2018-08-10T01:43:26.060Z,15.80
2018-08-10T01:44:31.674Z,15.70
2018-08-10T01:45:37.244Z,15.80
2018-08-10T01:46:42.737Z,15.80
2018-08-10T01:47:48.185Z,15.80
2018-08-10T01:48:53.704Z,15.80
2018-08-10T01:49:59.181Z,15.80
2018-08-10T01:51:05.068Z,15.70
2018-08-10T01:52:10.548Z,15.70
2018-08-10T01:53:15.970Z,15.70
2018-08-10T01:54:21.441Z,15.70
2018-08-10T01:55:26.884Z,15.70
2018-08-10T01:56:32.594Z,15.60
2018-08-10T01:57:39.032Z,15.70
2018-08-10T01:58:44.545Z,15.60
2018-08-10T01:59:50.060Z,15.60
2018-08-10T02:00:55.510Z,15.60
2018-08-10T02:02:01.449Z,15.60
2018-08-10T02:03:07.768Z,15.60
2018-08-10T02:04:13.265Z,15.60
2018-08-10T02:05:18.888Z,15.60
2018-08-10T02:06:24.396Z,15.60
2018-08-10T02:07:30.079Z,15.60
2018-08-10T02:08:35.624Z,15.70
2018-08-10T02:09:41.064Z,15.70
2018-08-10T02:10:46.532Z,15.60
2018-08-10T02:11:52.445Z,15.70
2018-08-10T02:12:58.690Z,15.70
2018-08-10T02:14:04.493Z,15.60
2018-08-10T02:15:13.759Z,15.60
2018-08-10T02:16:19.160Z,15.70
2018-08-10T02:17:24.597Z,15.60
2018-08-10T02:18:30.101Z,15.70
2018-08-10T02:19:35.872Z,15.70
2018-08-10T02:20:41.453Z,15.70
2018-08-10T02:21:47.009Z,15.70
2018-08-10T02:22:52.587Z,15.70
2018-08-10T02:23:58.286Z,15.70
2018-08-10T02:25:04.424Z,15.70
2018-08-10T02:26:09.991Z,15.80
2018-08-10T02:27:15.459Z,15.70
2018-08-10T02:28:20.978Z,15.80
2018-08-10T02:29:26.617Z,15.70
2018-08-10T02:30:32.568Z,15.80
2018-08-10T02:31:38.194Z,15.70
2018-08-10T02:32:44.438Z,15.70
2018-08-10T02:33:49.894Z,15.70
2018-08-10T02:34:55.310Z,15.70
2018-08-10T02:36:00.822Z,15.70
2018-08-10T02:37:06.438Z,15.70
2018-08-10T02:38:11.902Z,15.60
2018-08-10T02:39:17.320Z,15.60
2018-08-10T02:40:23.681Z,15.60
2018-08-10T02:41:29.434Z,15.60
2018-08-10T02:42:35.332Z,15.60
2018-08-10T02:43:40.785Z,15.60
2018-08-10T02:44:46.184Z,15.60
2018-08-10T02:45:51.673Z,15.50
2018-08-10T02:46:57.088Z,15.50
2018-08-10T02:48:02.921Z,15.40
2018-08-10T02:49:08.806Z,15.40
2018-08-10T02:50:14.377Z,15.40
2018-08-10T02:51:19.893Z,15.40
2018-08-10T02:52:25.656Z,15.30
2018-08-10T02:53:31.652Z,15.30
2018-08-10T02:54:37.237Z,15.30
2018-08-10T02:55:42.633Z,15.20
2018-08-10T02:56:48.184Z,15.20
2018-08-10T02:57:53.673Z,15.20
2018-08-10T02:58:59.220Z,15.10
2018-08-10T03:00:06.069Z,15.10
2018-08-10T03:01:11.705Z,15.00
2018-08-10T03:02:17.572Z,15.00
2018-08-10T03:03:23.054Z,15.00
2018-08-10T03:04:28.542Z,15.00
2018-08-10T03:05:33.996Z,15.00
2018-08-10T03:06:39.453Z,14.90
2018-08-10T03:07:45.601Z,15.00
2018-08-10T03:08:51.592Z,15.00
2018-08-10T03:09:56.998Z,14.90
2018-08-10T03:11:02.757Z,14.90
2018-08-10T03:12:09.505Z,15.00
2018-08-10T03:13:15.027Z,15.00
2018-08-10T03:14:20.501Z,15.00
2018-08-10T03:15:26.002Z,15.00
2018-08-10T03:16:31.472Z,15.00
2018-08-10T03:17:37.056Z,15.00
2018-08-10T03:18:42.553Z,14.90
2018-08-10T03:19:48.066Z,14.90
2018-08-10T03:20:53.501Z,14.90
2018-08-10T03:21:59.044Z,14.90
2018-08-10T03:23:05.017Z,14.90
2018-08-10T03:24:10.420Z,14.90
2018-08-10T03:25:15.917Z,15.00
2018-08-10T03:26:21.418Z,15.00
2018-08-10T03:27:26.887Z,15.00
2018-08-10T03:28:32.417Z,15.00
2018-08-10T03:29:38.013Z,15.10
2018-08-10T03:30:43.508Z,15.00
2018-08-10T03:31:49.086Z,15.00
2018-08-10T03:32:54.589Z,15.00
2018-08-10T03:34:00.052Z,15.00
2018-08-10T03:35:06.014Z,15.00
2018-08-10T03:36:11.481Z,15.00
2018-08-10T03:37:17.634Z,15.00
2018-08-10T03:38:23.008Z,14.90
2018-08-10T03:39:28.451Z,15.00
2018-08-10T03:40:34.061Z,15.00
2018-08-10T03:41:39.596Z,15.00
2018-08-10T03:42:45.032Z,14.90
2018-08-10T03:43:50.506Z,14.90
2018-08-10T03:44:56.060Z,14.90
2018-08-10T03:46:01.641Z,14.90
2018-08-10T03:47:07.628Z,14.80
2018-08-10T03:48:13.104Z,14.80
2018-08-10T03:49:18.818Z,14.80
2018-08-10T03:50:24.282Z,14.80
2018-08-10T03:51:29.801Z,14.80
2018-08-10T03:52:36.090Z,14.80
2018-08-10T03:53:41.562Z,14.80
2018-08-10T03:54:47.013Z,14.80
2018-08-10T03:55:52.417Z,14.80
2018-08-10T03:56:57.961Z,14.80
2018-08-10T03:58:03.929Z,14.80
2018-08-10T03:59:10.299Z,14.80
2018-08-10T04:00:15.718Z,14.80
2018-08-10T04:01:21.185Z,14.80
2018-08-10T04:02:26.637Z,14.80
2018-08-10T04:03:32.501Z,14.80
2018-08-10T04:04:38.645Z,14.80
2018-08-10T04:05:44.041Z,14.70
2018-08-10T04:06:49.521Z,14.70
2018-08-10T04:07:54.963Z,14.70
2018-08-10T04:09:00.835Z,14.70
2018-08-10T04:10:08.053Z,14.70
2018-08-10T04:11:13.529Z,14.70
2018-08-10T04:12:18.966Z,14.70
2018-08-10T04:13:24.455Z,14.70
2018-08-10T04:14:29.956Z,14.70
2018-08-10T04:15:35.540Z,14.70
2018-08-10T04:16:41.073Z,14.70
2018-08-10T04:17:46.553Z,14.70
2018-08-10T04:18:52.097Z,14.70
2018-08-10T04:19:57.565Z,14.70
2018-08-10T04:21:03.187Z,14.70
2018-08-10T04:22:09.212Z,14.60
2018-08-10T04:23:14.661Z,14.60
2018-08-10T04:24:20.217Z,14.60
2018-08-10T04:25:25.714Z,14.60
2018-08-10T04:26:31.320Z,14.50
2018-08-10T04:27:36.846Z,14.50
2018-08-10T04:28:42.312Z,14.50
2018-08-10T04:29:47.832Z,14.50
2018-08-10T04:30:53.549Z,14.50
2018-08-10T04:31:59.052Z,14.50
2018-08-10T04:33:04.608Z,14.50
2018-08-10T04:34:10.025Z,14.60
2018-08-10T04:35:15.504Z,14.70
2018-08-10T04:36:20.972Z,15.00
2018-08-10T04:37:26.465Z,15.20
2018-08-10T04:38:32.114Z,15.30
2018-08-10T04:39:37.609Z,15.50
2018-08-10T04:40:43.100Z,15.60
2018-08-10T04:41:48.600Z,15.80
2018-08-10T04:42:54.079Z,16.00
2018-08-10T04:43:59.600Z,16.10
2018-08-10T04:45:05.808Z,16.20
2018-08-10T04:46:11.328Z,16.20
2018-08-10T04:47:16.797Z,16.30
2018-08-10T04:48:22.325Z,16.30
2018-08-10T04:49:27.973Z,16.30
2018-08-10T04:50:34.249Z,16.20
2018-08-10T04:51:40.094Z,16.00
2018-08-10T04:52:45.568Z,15.90
2018-08-10T04:53:50.997Z,15.80
2018-08-10T04:54:56.466Z,15.70
2018-08-10T04:56:02.045Z,15.60
2018-08-10T04:57:08.286Z,15.50
2018-08-10T04:58:13.753Z,15.50
2018-08-10T04:59:19.198Z,15.40
2018-08-10T05:00:24.629Z,15.40
2018-08-10T05:01:30.058Z,15.30
2018-08-10T05:02:35.796Z,15.30
2018-08-10T05:03:41.256Z,15.30
2018-08-10T05:04:47.168Z,15.20
2018-08-10T05:05:52.635Z,15.10
2018-08-10T05:06:59.401Z,15.10
2018-08-10T05:08:04.909Z,15.10
2018-08-10T05:09:12.880Z,15.10
2018-08-10T05:10:18.386Z,15.10
2018-08-10T05:11:23.826Z,15.10
2018-08-10T05:12:29.276Z,15.10
2018-08-10T05:13:34.713Z,15.10
2018-08-10T05:14:40.129Z,15.20
2018-08-10T05:15:45.684Z,15.20
2018-08-10T05:16:51.058Z,15.30
2018-08-10T05:17:56.479Z,15.30
2018-08-10T05:19:01.902Z,15.30
2018-08-10T05:20:08.822Z,15.40
2018-08-10T05:21:14.342Z,15.40
2018-08-10T05:22:19.773Z,15.40
2018-08-10T05:23:25.253Z,15.30
2018-08-10T05:24:30.819Z,15.40
2018-08-10T05:25:36.315Z,15.40
2018-08-10T05:26:41.733Z,15.30
2018-08-10T05:27:47.273Z,15.30
2018-08-10T05:28:52.774Z,15.40
2018-08-10T05:29:58.273Z,15.40
2018-08-10T05:31:04.236Z,15.40
2018-08-10T05:32:09.866Z,15.40
2018-08-10T05:33:15.353Z,15.40
2018-08-10T05:34:20.913Z,15.40
2018-08-10T05:35:26.392Z,15.40
2018-08-10T05:36:31.929Z,15.40
2018-08-10T05:37:37.496Z,15.40
2018-08-10T05:38:42.993Z,15.50
2018-08-10T05:39:48.440Z,15.40
2018-08-10T05:40:53.924Z,15.50
2018-08-10T05:41:59.442Z,15.50
2018-08-10T05:43:04.924Z,15.50
2018-08-10T05:44:10.520Z,15.60
2018-08-10T05:45:15.906Z,15.60
2018-08-10T05:46:21.399Z,15.60
2018-08-10T05:47:26.857Z,15.60
2018-08-10T05:48:39.620Z,15.70
2018-08-10T05:49:45.046Z,15.70
2018-08-10T05:50:50.548Z,15.80
2018-08-10T05:51:55.927Z,15.80
2018-08-10T05:53:02.011Z,15.80
2018-08-10T05:54:08.221Z,15.80
2018-08-10T05:55:13.678Z,15.80
2018-08-10T05:56:19.171Z,15.80
2018-08-10T05:57:24.588Z,15.80
2018-08-10T05:58:30.299Z,15.70
2018-08-10T05:59:36.012Z,15.80
2018-08-10T06:00:41.572Z,15.80
2018-08-10T06:01:46.961Z,15.80
2018-08-10T06:02:52.380Z,15.80
2018-08-10T06:03:58.434Z,15.80
2018-08-10T06:05:03.888Z,15.80
2018-08-10T06:06:09.391Z,15.90
2018-08-10T06:07:15.552Z,15.90
2018-08-10T06:08:20.928Z,16.00
2018-08-10T06:09:26.446Z,16.00
2018-08-10T06:10:32.181Z,15.90
2018-08-10T06:11:37.893Z,16.00
2018-08-10T06:12:43.324Z,16.00
2018-08-10T06:13:48.760Z,16.00
2018-08-10T06:14:54.249Z,16.00
2018-08-10T06:15:59.803Z,16.10
2018-08-10T06:17:05.620Z,16.20
2018-08-10T06:18:11.052Z,16.20
2018-08-10T06:19:16.452Z,16.30
2018-08-10T06:20:21.935Z,16.30
2018-08-10T06:21:27.459Z,16.30
2018-08-10T06:22:32.976Z,16.30
2018-08-10T06:23:38.459Z,16.40
2018-08-10T06:24:43.865Z,16.50
2018-08-10T06:25:49.266Z,16.50
2018-08-10T06:26:54.704Z,16.50
2018-08-10T06:28:00.177Z,16.60
2018-08-10T06:29:05.751Z,16.70
2018-08-10T06:30:12.682Z,16.80
2018-08-10T06:31:18.121Z,16.70
2018-08-10T06:32:23.532Z,16.80
2018-08-10T06:33:28.982Z,16.70
2018-08-10T06:34:34.432Z,16.70
2018-08-10T06:35:39.833Z,16.80
2018-08-10T06:36:45.237Z,16.80
2018-08-10T06:37:50.769Z,16.80
2018-08-10T06:38:56.986Z,16.90
2018-08-10T06:40:02.869Z,16.90
2018-08-10T06:41:08.340Z,16.80
2018-08-10T06:42:13.784Z,17.00
2018-08-10T06:43:19.249Z,16.90
2018-08-10T06:44:25.205Z,17.00
2018-08-10T06:45:30.644Z,17.00
2018-08-10T06:46:36.222Z,17.10
2018-08-10T06:47:41.614Z,17.00
2018-08-10T06:48:46.985Z,17.10
2018-08-10T06:49:52.421Z,17.20
2018-08-10T06:50:57.836Z,17.20
2018-08-10T06:52:03.463Z,17.30
2018-08-10T06:53:09.066Z,17.20
2018-08-10T06:54:14.544Z,17.20
2018-08-10T06:55:19.989Z,17.30
2018-08-10T06:56:26.060Z,17.30
2018-08-10T06:57:31.560Z,17.30
2018-08-10T06:58:37.211Z,17.30
2018-08-10T06:59:42.668Z,17.30
2018-08-10T07:00:48.196Z,17.30
2018-08-10T07:01:53.611Z,17.30
2018-08-10T07:02:59.052Z,17.40
2018-08-10T07:04:04.808Z,17.40
2018-08-10T07:05:10.298Z,17.40
2018-08-10T07:06:15.792Z,17.50
2018-08-10T07:07:21.361Z,17.50
2018-08-10T07:08:26.804Z,17.50
2018-08-10T07:09:32.803Z,17.50
2018-08-10T07:10:38.484Z,17.50
2018-08-10T07:11:43.921Z,17.50
2018-08-10T07:12:49.395Z,17.50
2018-08-10T07:13:54.786Z,17.40
2018-08-10T07:15:00.285Z,17.50
2018-08-10T07:16:06.171Z,17.60
2018-08-10T07:17:11.607Z,17.60
2018-08-10T07:18:17.049Z,17.60
2018-08-10T07:19:22.572Z,17.70
2018-08-10T07:20:28.069Z,17.70
2018-08-10T07:21:33.613Z,17.70
2018-08-10T07:22:39.065Z,17.70
2018-08-10T07:23:44.464Z,17.80
2018-08-10T07:24:49.968Z,17.80
2018-08-10T07:25:55.461Z,17.90
2018-08-10T07:27:01.121Z,17.90
2018-08-10T07:28:06.650Z,17.90
2018-08-10T07:29:12.053Z,18.00
2018-08-10T07:30:17.574Z,18.00
2018-08-10T07:31:23.040Z,18.10
2018-08-10T07:32:28.514Z,18.20
2018-08-10T07:33:33.992Z,18.30
2018-08-10T07:34:39.409Z,18.30
2018-08-10T07:35:44.965Z,18.30
2018-08-10T07:36:50.436Z,18.40
2018-08-10T07:37:55.895Z,18.30
2018-08-10T07:39:01.313Z,18.40
2018-08-10T07:40:06.721Z,18.40
2018-08-10T07:41:12.177Z,18.50
2018-08-10T07:42:17.684Z,18.50
2018-08-10T07:43:23.201Z,18.40
2018-08-10T07:44:28.665Z,18.40
2018-08-10T07:45:34.097Z,18.30
2018-08-10T07:46:39.973Z,18.40
2018-08-10T07:47:45.372Z,18.40
2018-08-10T07:48:50.936Z,18.40
2018-08-10T07:49:56.361Z,18.40
2018-08-10T07:51:01.769Z,18.50
2018-08-10T07:52:07.796Z,18.50
2018-08-10T07:53:13.202Z,18.50
2018-08-10T07:54:18.608Z,18.60
2018-08-10T07:55:24.017Z,18.50
2018-08-10T07:56:29.416Z,18.60
2018-08-10T07:57:34.902Z,18.60
2018-08-10T07:58:40.365Z,18.70
2018-08-10T07:59:45.870Z,18.80
2018-08-10T08:00:51.342Z,18.80
2018-08-10T08:01:56.820Z,18.90
2018-08-10T08:03:02.772Z,18.90
2018-08-10T08:04:09.205Z,19.00
2018-08-10T08:05:14.744Z,19.00
2018-08-10T08:06:20.426Z,19.00
2018-08-10T08:07:25.892Z,19.00
2018-08-10T08:08:31.470Z,19.10
2018-08-10T08:09:37.224Z,19.10
2018-08-10T08:10:44.017Z,19.10
2018-08-10T08:11:49.569Z,19.10
2018-08-10T08:12:54.956Z,19.10
2018-08-10T08:14:00.543Z,19.10
2018-08-10T08:15:06.806Z,19.10
2018-08-10T08:16:13.730Z,19.10
2018-08-10T08:17:19.426Z,19.10
2018-08-10T08:18:24.873Z,19.20
2018-08-10T08:19:30.437Z,19.20
2018-08-10T08:20:37.471Z,19.30
2018-08-10T08:21:57.954Z,19.40
2018-08-10T08:23:05.141Z,19.40
2018-08-10T08:24:12.205Z,19.50
2018-08-10T08:25:17.652Z,19.50
2018-08-10T08:26:23.147Z,19.50
2018-08-10T08:27:28.997Z,19.40
2018-08-10T08:28:35.226Z,19.50
2018-08-10T08:29:40.661Z,19.50
2018-08-10T08:30:46.184Z,19.50
2018-08-10T08:31:51.678Z,19.50
2018-08-10T08:32:57.270Z,19.50
2018-08-10T08:34:06.727Z,19.50
2018-08-10T08:35:12.389Z,19.50
2018-08-10T08:36:17.800Z,19.50
2018-08-10T08:37:23.241Z,19.60
2018-08-10T08:38:45.736Z,19.60
2018-08-10T08:40:26.221Z,19.70
2018-08-10T08:41:32.064Z,19.80
2018-08-10T08:42:37.587Z,19.90
2018-08-10T08:45:59.384Z,20.00
2018-08-10T08:47:06.187Z,20.00
2018-08-10T08:48:12.006Z,20.10
2018-08-10T08:49:17.420Z,20.10
2018-08-10T08:50:22.894Z,20.10
2018-08-10T08:51:28.449Z,20.30
2018-08-10T08:52:34.218Z,20.40
2018-08-10T08:53:39.776Z,20.40
2018-08-10T08:55:27.220Z,20.40
2018-08-10T08:56:43.962Z,20.40
2018-08-10T08:57:49.465Z,20.50
2018-08-10T08:58:54.938Z,20.50
2018-08-10T09:00:00.525Z,20.40
2018-08-10T09:01:07.736Z,20.30
2018-08-10T09:02:13.398Z,20.10
2018-08-10T09:03:36.241Z,20.10
2018-08-10T09:05:04.067Z,20.00
2018-08-10T09:06:09.730Z,19.90
2018-08-10T09:07:15.219Z,19.80
2018-08-10T09:08:20.712Z,19.90
2018-08-10T09:09:38.742Z,20.00
2018-08-10T09:10:44.454Z,20.10
2018-08-10T09:11:49.889Z,20.10
2018-08-10T09:12:55.432Z,20.20
2018-08-10T09:14:49.872Z,20.30
2018-08-10T09:15:55.709Z,20.50
2018-08-10T09:17:01.264Z,20.60
2018-08-10T09:18:06.909Z,20.60
2018-08-10T09:19:12.416Z,20.80
2018-08-10T09:20:18.061Z,20.80
2018-08-10T09:21:23.454Z,20.90
2018-08-10T09:22:29.494Z,21.00
2018-08-10T09:23:35.001Z,21.10
2018-08-10T09:24:41.222Z,21.10
2018-08-10T09:25:46.779Z,21.20
2018-08-10T09:26:52.268Z,21.30
2018-08-10T09:27:57.656Z,21.40
2018-08-10T09:29:03.092Z,21.50
2018-08-10T09:30:12.408Z,21.60
2018-08-10T09:31:17.844Z,21.80
2018-08-10T09:32:23.368Z,21.80
2018-08-10T09:33:28.808Z,21.80
2018-08-10T09:34:34.290Z,21.80
2018-08-10T09:35:40.113Z,21.80
2018-08-10T09:36:45.590Z,21.80
2018-08-10T09:37:51.116Z,21.80
2018-08-10T09:38:56.566Z,21.90
2018-08-10T09:40:02.003Z,21.90
2018-08-10T09:41:07.933Z,21.90
2018-08-10T09:42:13.542Z,22.00
2018-08-10T09:43:18.992Z,22.10
2018-08-10T09:44:24.433Z,22.10
2018-08-10T09:45:29.923Z,22.10
2018-08-10T09:46:35.373Z,22.10
2018-08-10T09:47:41.350Z,22.00
2018-08-10T09:48:46.813Z,22.10
2018-08-10T09:49:52.329Z,22.00
2018-08-10T09:50:57.773Z,22.10
2018-08-10T09:52:03.392Z,22.20
2018-08-10T09:53:08.893Z,22.20
2018-08-10T09:54:14.464Z,22.30
2018-08-10T09:55:22.798Z,22.30
2018-08-10T09:56:28.265Z,22.20
2018-08-10T09:57:33.729Z,22.30
2018-08-10T09:58:39.209Z,22.30
2018-08-10T09:59:44.780Z,22.40
2018-08-10T10:00:55.191Z,22.40
2018-08-10T10:02:05.937Z,22.40
2018-08-10T10:03:19.252Z,22.30
2018-08-10T10:04:24.700Z,22.40
2018-08-10T10:05:30.376Z,22.60
2018-08-10T10:06:35.958Z,22.60
2018-08-10T10:07:41.777Z,22.60
2018-08-10T10:08:47.761Z,22.70
2018-08-10T10:09:53.201Z,22.80
2018-08-10T10:10:58.716Z,23.10
2018-08-10T10:12:04.180Z,23.20
2018-08-10T10:13:10.110Z,23.40
2018-08-10T10:14:15.556Z,23.30
2018-08-10T10:15:21.536Z,23.20
2018-08-10T10:16:26.985Z,23.20
2018-08-10T10:17:32.488Z,23.30
2018-08-10T10:18:38.417Z,23.40
2018-08-10T10:19:44.222Z,23.30
2018-08-10T10:20:49.808Z,23.20
2018-08-10T10:21:55.306Z,23.20
2018-08-10T10:23:00.866Z,23.20
2018-08-10T10:24:09.873Z,23.20
2018-08-10T10:25:15.461Z,23.20
2018-08-10T10:26:20.949Z,23.30
2018-08-10T10:27:26.657Z,23.30
2018-08-10T10:28:32.138Z,23.30
2018-08-10T10:29:38.143Z,23.30
2018-08-10T10:30:43.812Z,23.30
2018-08-10T10:31:49.325Z,23.40
2018-08-10T10:32:54.785Z,23.20
2018-08-10T10:34:00.273Z,23.20
2018-08-10T10:35:06.840Z,23.10
2018-08-10T10:36:12.512Z,23.00
2018-08-10T10:37:17.966Z,22.80
2018-08-10T10:38:23.451Z,22.70
2018-08-10T10:39:28.960Z,22.60
2018-08-10T10:40:34.802Z,22.30
2018-08-10T10:41:40.484Z,22.20
2018-08-10T10:42:45.964Z,22.10
2018-08-10T10:43:51.421Z,22.20
2018-08-10T10:44:56.920Z,22.30
2018-08-10T10:46:02.434Z,22.50
2018-08-10T10:47:08.245Z,22.50
2018-08-10T10:48:13.757Z,22.60
2018-08-10T10:49:19.157Z,22.70
2018-08-10T10:50:24.946Z,22.80
2018-08-10T10:51:30.378Z,22.90
2018-08-10T10:52:36.418Z,22.90
2018-08-10T10:53:41.940Z,23.10
2018-08-10T10:54:47.414Z,23.10
2018-08-10T10:55:52.903Z,23.00
2018-08-10T10:56:58.483Z,23.10
2018-08-10T10:58:03.945Z,23.20
2018-08-10T10:59:09.737Z,23.40
2018-08-10T11:00:20.301Z,23.60
2018-08-10T11:01:25.770Z,23.70
2018-08-10T11:02:31.233Z,23.80
2018-08-10T11:03:36.849Z,23.80
2018-08-10T11:04:42.356Z,23.70
2018-08-10T11:05:48.372Z,23.80
2018-08-10T11:06:53.817Z,23.60
2018-08-10T11:07:59.229Z,23.30
2018-08-10T11:09:06.497Z,23.20
2018-08-10T11:10:13.695Z,23.20
2018-08-10T11:11:19.146Z,23.10
2018-08-10T11:12:24.564Z,23.10
2018-08-10T11:13:30.052Z,23.20
2018-08-10T11:14:35.761Z,23.40
2018-08-10T11:15:41.213Z,23.60
2018-08-10T11:16:46.712Z,23.80
2018-08-10T11:17:52.188Z,23.80
2018-08-10T11:18:57.652Z,23.70
2018-08-10T11:20:03.152Z,23.70
2018-08-10T11:21:08.670Z,23.70
2018-08-10T11:22:14.203Z,23.80
2018-08-10T11:23:19.725Z,23.90
2018-08-10T11:24:25.238Z,24.00
2018-08-10T11:25:30.794Z,24.00
2018-08-10T11:26:36.611Z,24.00
2018-08-10T11:27:42.846Z,24.10
2018-08-10T11:28:48.323Z,24.10
2018-08-10T11:29:53.795Z,24.20
2018-08-10T11:31:01.260Z,24.10
2018-08-10T11:32:06.852Z,24.00
2018-08-10T11:33:12.313Z,24.10
2018-08-10T11:34:17.752Z,24.00
2018-08-10T11:35:23.251Z,24.00
2018-08-10T11:36:28.978Z,23.80
2018-08-10T11:37:34.628Z,23.70
2018-08-10T11:38:40.158Z,23.60
2018-08-10T11:39:45.712Z,23.50
2018-08-10T11:40:51.172Z,23.50
2018-08-10T11:41:56.681Z,23.60
2018-08-10T11:43:02.145Z,23.70
2018-08-10T11:44:08.052Z,23.70
2018-08-10T11:45:15.708Z,23.80
2018-08-10T11:46:21.277Z,23.90
2018-08-10T11:47:26.833Z,24.00
2018-08-10T11:48:32.245Z,24.10
2018-08-10T11:49:38.572Z,24.20
2018-08-10T11:50:43.993Z,24.20
2018-08-10T11:51:49.424Z,24.10
2018-08-10T11:52:55.308Z,24.20
2018-08-10T11:54:00.924Z,24.30
2018-08-10T11:55:07.717Z,24.40
2018-08-10T11:56:13.390Z,24.60
2018-08-10T11:57:18.847Z,24.80
2018-08-10T11:58:24.814Z,24.90
2018-08-10T11:59:30.322Z,25.10
2018-08-10T12:00:35.721Z,25.20
2018-08-10T12:01:41.714Z,25.30
2018-08-10T12:02:47.154Z,25.40
2018-08-10T12:03:53.059Z,25.50
2018-08-10T12:04:58.505Z,25.50
2018-08-10T12:06:04.189Z,25.60
2018-08-10T12:07:09.501Z,25.60
2018-08-10T12:08:14.980Z,25.50
2018-08-10T12:09:20.565Z,25.50
2018-08-10T12:10:26.025Z,25.50
2018-08-10T12:11:31.504Z,25.60
2018-08-10T12:12:37.212Z,25.70
2018-08-10T12:13:42.881Z,25.70
2018-08-10T12:14:48.422Z,25.50
2018-08-10T12:15:54.035Z,25.30
2018-08-10T12:16:59.978Z,25.30
2018-08-10T12:18:05.752Z,25.30
2018-08-10T12:19:11.278Z,25.20
2018-08-10T12:20:17.462Z,25.10
2018-08-10T12:21:22.916Z,25.20
2018-08-10T12:22:28.424Z,25.30
2018-08-10T12:23:33.983Z,25.30
2018-08-10T12:24:39.556Z,25.10
2018-08-10T12:25:45.014Z,25.00
2018-08-10T12:26:50.539Z,24.80
2018-08-10T12:27:55.964Z,24.40
2018-08-10T12:29:01.434Z,24.30
2018-08-10T12:30:09.205Z,24.30
2018-08-10T12:31:15.081Z,24.40
2018-08-10T12:32:20.560Z,24.30
2018-08-10T12:33:26.122Z,24.30
2018-08-10T12:34:31.881Z,24.10
2018-08-10T12:35:37.613Z,24.00
2018-08-10T12:36:43.057Z,23.80
2018-08-10T12:37:48.462Z,23.60
2018-08-10T12:38:53.889Z,23.40
2018-08-10T12:39:59.449Z,23.30
2018-08-10T12:41:04.914Z,23.20
2018-08-10T12:42:10.395Z,23.10
2018-08-10T12:43:15.881Z,23.00
2018-08-10T12:44:21.313Z,23.00
2018-08-10T12:45:26.765Z,23.00
2018-08-10T12:46:32.289Z,23.10
2018-08-10T12:47:38.485Z,23.10
2018-08-10T12:48:43.986Z,23.20
2018-08-10T12:49:49.439Z,23.20
2018-08-10T12:50:54.864Z,23.20
2018-08-10T12:52:00.329Z,23.30
2018-08-10T12:53:05.809Z,23.30
2018-08-10T12:54:11.676Z,23.50
2018-08-10T12:55:17.157Z,23.40
2018-08-10T12:56:22.552Z,23.30
2018-08-10T12:57:29.510Z,23.30
2018-08-10T12:58:37.871Z,23.30
2018-08-10T12:59:44.454Z,23.30
2018-08-10T13:00:50.068Z,23.40
2018-08-10T13:01:55.613Z,23.30
2018-08-10T13:03:03.333Z,23.10
2018-08-10T13:04:08.809Z,23.10
2018-08-10T13:05:14.410Z,22.90
2018-08-10T13:06:20.432Z,22.80
2018-08-10T13:07:26.009Z,22.60
2018-08-10T13:08:31.452Z,22.50
2018-08-10T13:09:36.908Z,22.40
2018-08-10T13:10:42.492Z,22.30
2018-08-10T13:11:47.974Z,22.30
2018-08-10T13:12:53.477Z,22.20
2018-08-10T13:13:59.428Z,22.30
2018-08-10T13:15:06.577Z,22.20
2018-08-10T13:16:12.084Z,22.30
2018-08-10T13:17:17.814Z,22.30
2018-08-10T13:18:23.400Z,22.30
2018-08-10T13:19:28.856Z,22.40
2018-08-10T13:20:34.485Z,22.40
2018-08-10T13:21:40.059Z,22.60
2018-08-10T13:22:45.609Z,22.70
2018-08-10T13:23:51.171Z,23.00
2018-08-10T13:24:56.574Z,23.20
2018-08-10T13:26:02.064Z,23.30
2018-08-10T13:27:07.686Z,23.50
2018-08-10T13:28:13.232Z,23.70
2018-08-10T13:29:18.731Z,23.70
2018-08-10T13:30:24.174Z,23.80
2018-08-10T13:31:29.693Z,23.60
2018-08-10T13:32:35.352Z,23.50
2018-08-10T13:33:41.071Z,23.40
2018-08-10T13:34:46.631Z,23.30
2018-08-10T13:35:52.080Z,23.40
2018-08-10T13:36:57.572Z,23.40
2018-08-10T13:38:03.036Z,23.50
2018-08-10T13:39:11.669Z,23.80
2018-08-10T13:40:17.100Z,23.80
2018-08-10T13:41:22.553Z,23.90
2018-08-10T13:42:28.010Z,23.90
2018-08-10T13:43:33.508Z,23.80
2018-08-10T13:44:39.001Z,23.80
2018-08-10T13:45:44.526Z,23.80
2018-08-10T13:46:49.981Z,23.80
2018-08-10T13:47:55.446Z,23.80
2018-08-10T13:49:00.916Z,23.80
2018-08-10T13:50:09.499Z,23.70
2018-08-10T13:51:15.054Z,23.70
2018-08-10T13:52:20.490Z,23.60
2018-08-10T13:53:26.083Z,23.50
2018-08-10T13:54:31.532Z,23.40
2018-08-10T13:55:37.057Z,23.40
2018-08-10T13:56:42.532Z,23.20
2018-08-10T13:57:49.028Z,23.20
2018-08-10T13:58:54.515Z,23.10
2018-08-10T13:59:59.989Z,22.90
2018-08-10T14:01:05.608Z,22.80
2018-08-10T14:02:11.317Z,22.70
2018-08-10T14:03:17.062Z,22.90
2018-08-10T14:04:22.698Z,22.90
2018-08-10T14:05:28.347Z,23.00
2018-08-10T14:06:33.979Z,23.10
2018-08-10T14:07:39.908Z,23.30
2018-08-10T14:08:45.664Z,23.30
2018-08-10T14:09:51.149Z,23.30
2018-08-10T14:10:56.677Z,23.40
2018-08-10T14:12:02.234Z,23.40